sensor_id;sensor_type;location;lat;lon;timestamp;P1;durP1;ratioP1;P2;durP2;ratioP2
40511;SDS011;26213;52.446;20.706;2022-11-15T00:01:32;30.35;;;16.08;;
40511;SDS011;26213;52.446;20.706;2022-11-15T00:03:57;21.45;;;15.27;;
40511;SDS011;26213;52.446;20.706;2022-11-15T00:06:23;23.75;;;14.63;;
40511;SDS011;26213;52.446;20.706;2022-11-15T00:08:48;23.60;;;15.20;;
40511;SDS011;26213;52.446;20.706;2022-11-15T00:11:13;23.23;;;15.80;;
40511;SDS011;26213;52.446;20.706;2022-11-15T00:13:39;22.45;;;14.40;;
40511;SDS011;26213;52.446;20.706;2022-11-15T00:16:05;22.83;;;14.95;;
40511;SDS011;26213;52.446;20.706;2022-11-15T00:18:30;24.15;;;14.48;;
40511;SDS011;26213;52.446;20.706;2022-11-15T00:20:56;22.27;;;13.70;;
40511;SDS011;26213;52.446;20.706;2022-11-15T00:23:32;24.58;;;15.40;;
40511;SDS011;26213;52.446;20.706;2022-11-15T00:25:58;23.08;;;15.25;;
40511;SDS011;26213;52.446;20.706;2022-11-15T00:28:24;22.08;;;13.85;;
40511;SDS011;26213;52.446;20.706;2022-11-15T00:30:49;20.80;;;14.63;;
40511;SDS011;26213;52.446;20.706;2022-11-15T00:33:15;24.75;;;15.93;;
40511;SDS011;26213;52.446;20.706;2022-11-15T00:35:40;25.73;;;15.68;;
40511;SDS011;26213;52.446;20.706;2022-11-15T00:38:06;26.75;;;15.23;;
40511;SDS011;26213;52.446;20.706;2022-11-15T00:40:31;27.90;;;16.27;;
40511;SDS011;26213;52.446;20.706;2022-11-15T00:42:57;24.00;;;15.90;;
40511;SDS011;26213;52.446;20.706;2022-11-15T00:45:23;25.27;;;16.13;;
40511;SDS011;26213;52.446;20.706;2022-11-15T00:47:48;26.80;;;16.70;;
40511;SDS011;26213;52.446;20.706;2022-11-15T00:50:14;23.27;;;15.38;;
40511;SDS011;26213;52.446;20.706;2022-11-15T00:52:39;24.02;;;15.77;;
40511;SDS011;26213;52.446;20.706;2022-11-15T00:55:05;24.15;;;15.85;;
40511;SDS011;26213;52.446;20.706;2022-11-15T00:57:30;26.88;;;16.45;;
40511;SDS011;26213;52.446;20.706;2022-11-15T00:59:56;26.63;;;16.50;;
40511;SDS011;26213;52.446;20.706;2022-11-15T01:02:21;25.73;;;17.00;;
40511;SDS011;26213;52.446;20.706;2022-11-15T01:04:47;24.02;;;15.25;;
40511;SDS011;26213;52.446;20.706;2022-11-15T01:07:12;25.52;;;15.60;;
40511;SDS011;26213;52.446;20.706;2022-11-15T01:09:38;23.70;;;16.27;;
40511;SDS011;26213;52.446;20.706;2022-11-15T01:12:03;24.02;;;17.05;;
40511;SDS011;26213;52.446;20.706;2022-11-15T01:14:29;28.98;;;15.95;;
40511;SDS011;26213;52.446;20.706;2022-11-15T01:16:54;28.00;;;16.83;;
40511;SDS011;26213;52.446;20.706;2022-11-15T01:19:20;28.05;;;16.85;;
40511;SDS011;26213;52.446;20.706;2022-11-15T01:21:48;28.73;;;18.33;;
40511;SDS011;26213;52.446;20.706;2022-11-15T01:24:14;28.98;;;18.38;;
40511;SDS011;26213;52.446;20.706;2022-11-15T01:26:39;31.63;;;18.75;;
40511;SDS011;26213;52.446;20.706;2022-11-15T01:29:05;30.95;;;18.42;;
40511;SDS011;26213;52.446;20.706;2022-11-15T01:31:30;29.50;;;19.08;;
40511;SDS011;26213;52.446;20.706;2022-11-15T01:33:56;29.40;;;18.52;;
40511;SDS011;26213;52.446;20.706;2022-11-15T01:36:21;34.60;;;20.38;;
40511;SDS011;26213;52.446;20.706;2022-11-15T01:38:52;32.05;;;18.60;;
40511;SDS011;26213;52.446;20.706;2022-11-15T01:41:23;36.13;;;21.13;;
40511;SDS011;26213;52.446;20.706;2022-11-15T01:43:54;36.53;;;21.30;;
40511;SDS011;26213;52.446;20.706;2022-11-15T01:46:26;36.78;;;22.13;;
40511;SDS011;26213;52.446;20.706;2022-11-15T01:49:00;37.20;;;21.70;;
40511;SDS011;26213;52.446;20.706;2022-11-15T01:51:29;37.75;;;22.77;;
40511;SDS011;26213;52.446;20.706;2022-11-15T01:53:57;42.15;;;24.30;;
40511;SDS011;26213;52.446;20.706;2022-11-15T01:56:28;38.42;;;23.00;;
40511;SDS011;26213;52.446;20.706;2022-11-15T01:58:56;43.70;;;23.55;;
40511;SDS011;26213;52.446;20.706;2022-11-15T02:01:22;39.40;;;23.50;;
40511;SDS011;26213;52.446;20.706;2022-11-15T02:03:51;40.93;;;24.67;;
40511;SDS011;26213;52.446;20.706;2022-11-15T02:06:20;39.50;;;24.50;;
40511;SDS011;26213;52.446;20.706;2022-11-15T02:08:46;39.47;;;24.40;;
40511;SDS011;26213;52.446;20.706;2022-11-15T02:11:12;42.80;;;23.63;;
40511;SDS011;26213;52.446;20.706;2022-11-15T02:13:37;42.17;;;24.38;;
40511;SDS011;26213;52.446;20.706;2022-11-15T02:18:38;43.97;;;26.27;;
40511;SDS011;26213;52.446;20.706;2022-11-15T02:32:26;43.67;;;25.65;;
40511;SDS011;26213;52.446;20.706;2022-11-15T02:34:56;43.85;;;25.02;;
40511;SDS011;26213;52.446;20.706;2022-11-15T02:37:39;44.25;;;26.75;;
40511;SDS011;26213;52.446;20.706;2022-11-15T02:42:55;50.70;;;26.20;;
40511;SDS011;26213;52.446;20.706;2022-11-15T02:45:45;47.42;;;25.60;;
40511;SDS011;26213;52.446;20.706;2022-11-15T02:48:16;47.05;;;25.85;;
40511;SDS011;26213;52.446;20.706;2022-11-15T02:50:42;43.65;;;28.25;;
40511;SDS011;26213;52.446;20.706;2022-11-15T02:53:08;52.85;;;26.75;;
40511;SDS011;26213;52.446;20.706;2022-11-15T02:55:35;45.13;;;26.83;;
40511;SDS011;26213;52.446;20.706;2022-11-15T03:00:36;46.00;;;27.27;;
40511;SDS011;26213;52.446;20.706;2022-11-15T03:03:10;49.58;;;28.48;;
40511;SDS011;26213;52.446;20.706;2022-11-15T03:06:39;41.78;;;25.98;;
40511;SDS011;26213;52.446;20.706;2022-11-15T03:11:17;47.80;;;29.55;;
40511;SDS011;26213;52.446;20.706;2022-11-15T03:13:46;47.38;;;27.17;;
40511;SDS011;26213;52.446;20.706;2022-11-15T03:21:55;53.35;;;29.92;;
40511;SDS011;26213;52.446;20.706;2022-11-15T03:24:23;46.30;;;27.17;;
40511;SDS011;26213;52.446;20.706;2022-11-15T03:26:50;48.80;;;29.30;;
40511;SDS011;26213;52.446;20.706;2022-11-15T03:29:17;51.72;;;30.00;;
40511;SDS011;26213;52.446;20.706;2022-11-15T03:31:47;46.97;;;27.92;;
40511;SDS011;26213;52.446;20.706;2022-11-15T03:34:22;44.95;;;25.02;;
40511;SDS011;26213;52.446;20.706;2022-11-15T03:36:51;44.92;;;26.25;;
40511;SDS011;26213;52.446;20.706;2022-11-15T03:39:17;49.90;;;27.38;;
40511;SDS011;26213;52.446;20.706;2022-11-15T03:44:52;49.35;;;26.58;;
40511;SDS011;26213;52.446;20.706;2022-11-15T03:47:48;45.10;;;25.70;;
40511;SDS011;26213;52.446;20.706;2022-11-15T03:50:17;47.28;;;28.10;;
40511;SDS011;26213;52.446;20.706;2022-11-15T03:52:47;46.03;;;27.98;;
40511;SDS011;26213;52.446;20.706;2022-11-15T03:55:15;46.15;;;28.30;;
40511;SDS011;26213;52.446;20.706;2022-11-15T03:57:43;48.00;;;28.63;;
40511;SDS011;26213;52.446;20.706;2022-11-15T04:00:09;46.78;;;27.73;;
40511;SDS011;26213;52.446;20.706;2022-11-15T04:02:35;50.97;;;28.77;;
40511;SDS011;26213;52.446;20.706;2022-11-15T04:05:00;46.22;;;28.58;;
40511;SDS011;26213;52.446;20.706;2022-11-15T04:07:26;43.85;;;26.90;;
40511;SDS011;26213;52.446;20.706;2022-11-15T04:09:51;43.28;;;25.52;;
40511;SDS011;26213;52.446;20.706;2022-11-15T04:12:29;47.40;;;25.80;;
40511;SDS011;26213;52.446;20.706;2022-11-15T04:20:26;43.95;;;24.48;;
40511;SDS011;26213;52.446;20.706;2022-11-15T04:23:13;44.42;;;26.50;;
40511;SDS011;26213;52.446;20.706;2022-11-15T04:25:58;47.03;;;26.48;;
40511;SDS011;26213;52.446;20.706;2022-11-15T04:28:24;48.13;;;26.58;;
40511;SDS011;26213;52.446;20.706;2022-11-15T04:30:50;42.67;;;24.50;;
40511;SDS011;26213;52.446;20.706;2022-11-15T04:33:15;46.17;;;25.73;;
40511;SDS011;26213;52.446;20.706;2022-11-15T04:35:41;46.20;;;26.55;;
40511;SDS011;26213;52.446;20.706;2022-11-15T04:38:08;48.00;;;26.33;;
40511;SDS011;26213;52.446;20.706;2022-11-15T04:40:34;48.60;;;27.30;;
40511;SDS011;26213;52.446;20.706;2022-11-15T04:43:00;43.20;;;24.83;;
40511;SDS011;26213;52.446;20.706;2022-11-15T04:45:26;45.28;;;24.45;;
40511;SDS011;26213;52.446;20.706;2022-11-15T04:47:51;42.42;;;25.23;;
40511;SDS011;26213;52.446;20.706;2022-11-15T04:50:17;47.42;;;27.05;;
40511;SDS011;26213;52.446;20.706;2022-11-15T04:52:51;42.35;;;26.30;;
40511;SDS011;26213;52.446;20.706;2022-11-15T04:55:18;43.78;;;24.48;;
40511;SDS011;26213;52.446;20.706;2022-11-15T04:57:43;48.13;;;25.15;;
40511;SDS011;26213;52.446;20.706;2022-11-15T05:00:10;46.75;;;25.33;;
40511;SDS011;26213;52.446;20.706;2022-11-15T05:02:37;45.20;;;25.58;;
40511;SDS011;26213;52.446;20.706;2022-11-15T05:05:21;44.80;;;25.73;;
40511;SDS011;26213;52.446;20.706;2022-11-15T05:07:46;53.67;;;27.77;;
40511;SDS011;26213;52.446;20.706;2022-11-15T05:10:12;47.05;;;26.52;;
40511;SDS011;26213;52.446;20.706;2022-11-15T05:12:37;56.47;;;28.63;;
40511;SDS011;26213;52.446;20.706;2022-11-15T05:15:02;53.42;;;27.77;;
40511;SDS011;26213;52.446;20.706;2022-11-15T05:17:28;54.55;;;26.83;;
40511;SDS011;26213;52.446;20.706;2022-11-15T05:19:53;46.03;;;26.10;;
40511;SDS011;26213;52.446;20.706;2022-11-15T05:22:19;45.70;;;26.38;;
40511;SDS011;26213;52.446;20.706;2022-11-15T05:24:45;52.55;;;28.92;;
40511;SDS011;26213;52.446;20.706;2022-11-15T05:27:10;49.40;;;25.77;;
40511;SDS011;26213;52.446;20.706;2022-11-15T05:29:35;51.13;;;27.95;;
40511;SDS011;26213;52.446;20.706;2022-11-15T05:32:02;49.13;;;27.73;;
40511;SDS011;26213;52.446;20.706;2022-11-15T05:34:28;51.55;;;29.27;;
40511;SDS011;26213;52.446;20.706;2022-11-15T05:36:54;54.00;;;29.15;;
40511;SDS011;26213;52.446;20.706;2022-11-15T05:39:19;50.30;;;28.38;;
40511;SDS011;26213;52.446;20.706;2022-11-15T05:41:48;47.05;;;26.02;;
40511;SDS011;26213;52.446;20.706;2022-11-15T05:44:17;48.85;;;27.35;;
40511;SDS011;26213;52.446;20.706;2022-11-15T05:46:45;54.42;;;28.55;;
40511;SDS011;26213;52.446;20.706;2022-11-15T05:49:11;52.20;;;27.48;;
40511;SDS011;26213;52.446;20.706;2022-11-15T05:51:38;51.63;;;24.92;;
40511;SDS011;26213;52.446;20.706;2022-11-15T05:54:04;52.78;;;26.75;;
40511;SDS011;26213;52.446;20.706;2022-11-15T05:56:29;52.55;;;28.95;;
40511;SDS011;26213;52.446;20.706;2022-11-15T05:58:55;56.90;;;27.95;;
40511;SDS011;26213;52.446;20.706;2022-11-15T06:01:22;53.55;;;26.80;;
40511;SDS011;26213;52.446;20.706;2022-11-15T06:03:48;54.30;;;26.95;;
40511;SDS011;26213;52.446;20.706;2022-11-15T06:06:27;54.13;;;27.40;;
40511;SDS011;26213;52.446;20.706;2022-11-15T06:08:52;52.22;;;27.85;;
40511;SDS011;26213;52.446;20.706;2022-11-15T06:11:18;59.75;;;26.88;;
40511;SDS011;26213;52.446;20.706;2022-11-15T06:13:43;52.65;;;26.90;;
40511;SDS011;26213;52.446;20.706;2022-11-15T06:16:08;58.17;;;27.60;;
40511;SDS011;26213;52.446;20.706;2022-11-15T06:18:34;54.33;;;27.70;;
40511;SDS011;26213;52.446;20.706;2022-11-15T06:21:00;51.75;;;28.17;;
40511;SDS011;26213;52.446;20.706;2022-11-15T06:23:26;56.10;;;27.77;;
40511;SDS011;26213;52.446;20.706;2022-11-15T06:25:52;50.95;;;27.65;;
40511;SDS011;26213;52.446;20.706;2022-11-15T06:28:17;47.15;;;25.42;;
40511;SDS011;26213;52.446;20.706;2022-11-15T06:30:43;55.13;;;29.17;;
40511;SDS011;26213;52.446;20.706;2022-11-15T06:33:08;59.58;;;27.70;;
40511;SDS011;26213;52.446;20.706;2022-11-15T06:35:34;51.58;;;25.95;;
40511;SDS011;26213;52.446;20.706;2022-11-15T06:38:04;43.95;;;24.02;;
40511;SDS011;26213;52.446;20.706;2022-11-15T06:40:32;54.05;;;26.17;;
40511;SDS011;26213;52.446;20.706;2022-11-15T06:42:59;64.43;;;28.40;;
40511;SDS011;26213;52.446;20.706;2022-11-15T06:45:24;54.83;;;27.30;;
40511;SDS011;26213;52.446;20.706;2022-11-15T06:47:50;55.22;;;27.38;;
40511;SDS011;26213;52.446;20.706;2022-11-15T06:50:15;66.10;;;28.17;;
40511;SDS011;26213;52.446;20.706;2022-11-15T06:52:41;59.42;;;26.30;;
40511;SDS011;26213;52.446;20.706;2022-11-15T06:55:06;61.53;;;28.77;;
40511;SDS011;26213;52.446;20.706;2022-11-15T06:57:33;60.47;;;27.48;;
40511;SDS011;26213;52.446;20.706;2022-11-15T06:59:58;52.80;;;25.92;;
40511;SDS011;26213;52.446;20.706;2022-11-15T07:02:24;57.10;;;25.52;;
40511;SDS011;26213;52.446;20.706;2022-11-15T07:04:49;53.17;;;27.60;;
40511;SDS011;26213;52.446;20.706;2022-11-15T07:07:14;59.42;;;27.40;;
40511;SDS011;26213;52.446;20.706;2022-11-15T07:09:40;60.03;;;26.58;;
40511;SDS011;26213;52.446;20.706;2022-11-15T07:12:05;53.72;;;25.23;;
40511;SDS011;26213;52.446;20.706;2022-11-15T07:14:31;50.30;;;23.58;;
40511;SDS011;26213;52.446;20.706;2022-11-15T07:16:56;50.08;;;24.10;;
40511;SDS011;26213;52.446;20.706;2022-11-15T07:19:22;45.95;;;25.00;;
40511;SDS011;26213;52.446;20.706;2022-11-15T07:21:47;47.95;;;24.42;;
40511;SDS011;26213;52.446;20.706;2022-11-15T07:24:13;55.33;;;27.67;;
40511;SDS011;26213;52.446;20.706;2022-11-15T07:26:38;47.67;;;23.92;;
40511;SDS011;26213;52.446;20.706;2022-11-15T07:29:03;49.42;;;25.63;;
40511;SDS011;26213;52.446;20.706;2022-11-15T07:31:29;47.03;;;24.73;;
40511;SDS011;26213;52.446;20.706;2022-11-15T07:33:55;54.97;;;26.40;;
40511;SDS011;26213;52.446;20.706;2022-11-15T07:36:20;52.70;;;25.67;;
40511;SDS011;26213;52.446;20.706;2022-11-15T07:38:46;52.95;;;26.42;;
40511;SDS011;26213;52.446;20.706;2022-11-15T07:41:12;49.08;;;23.50;;
40511;SDS011;26213;52.446;20.706;2022-11-15T07:43:37;53.40;;;26.42;;
40511;SDS011;26213;52.446;20.706;2022-11-15T07:46:06;52.42;;;26.60;;
40511;SDS011;26213;52.446;20.706;2022-11-15T07:48:35;55.55;;;26.10;;
40511;SDS011;26213;52.446;20.706;2022-11-15T07:51:01;65.00;;;29.77;;
40511;SDS011;26213;52.446;20.706;2022-11-15T07:53:28;59.08;;;30.52;;
40511;SDS011;26213;52.446;20.706;2022-11-15T07:55:53;57.40;;;27.55;;
40511;SDS011;26213;52.446;20.706;2022-11-15T07:58:19;51.95;;;26.88;;
40511;SDS011;26213;52.446;20.706;2022-11-15T08:00:44;59.65;;;28.30;;
40511;SDS011;26213;52.446;20.706;2022-11-15T08:03:11;59.03;;;27.30;;
40511;SDS011;26213;52.446;20.706;2022-11-15T08:05:39;66.97;;;35.25;;
40511;SDS011;26213;52.446;20.706;2022-11-15T08:08:05;57.08;;;29.73;;
40511;SDS011;26213;52.446;20.706;2022-11-15T08:10:35;46.10;;;23.70;;
40511;SDS011;26213;52.446;20.706;2022-11-15T08:13:02;59.55;;;29.38;;
40511;SDS011;26213;52.446;20.706;2022-11-15T08:15:31;51.47;;;23.85;;
40511;SDS011;26213;52.446;20.706;2022-11-15T08:17:58;50.92;;;24.17;;
40511;SDS011;26213;52.446;20.706;2022-11-15T08:20:26;58.42;;;27.85;;
40511;SDS011;26213;52.446;20.706;2022-11-15T08:22:54;54.00;;;25.85;;
40511;SDS011;26213;52.446;20.706;2022-11-15T08:25:20;58.33;;;28.27;;
40511;SDS011;26213;52.446;20.706;2022-11-15T08:27:46;52.40;;;25.33;;
40511;SDS011;26213;52.446;20.706;2022-11-15T08:30:12;58.50;;;27.85;;
40511;SDS011;26213;52.446;20.706;2022-11-15T08:32:38;53.80;;;24.92;;
40511;SDS011;26213;52.446;20.706;2022-11-15T08:35:04;60.03;;;27.48;;
40511;SDS011;26213;52.446;20.706;2022-11-15T08:37:30;57.90;;;27.20;;
40511;SDS011;26213;52.446;20.706;2022-11-15T08:39:55;49.38;;;24.30;;
40511;SDS011;26213;52.446;20.706;2022-11-15T08:42:20;53.53;;;26.08;;
40511;SDS011;26213;52.446;20.706;2022-11-15T08:44:46;55.40;;;26.88;;
40511;SDS011;26213;52.446;20.706;2022-11-15T08:47:11;56.47;;;27.63;;
40511;SDS011;26213;52.446;20.706;2022-11-15T08:49:38;57.00;;;26.73;;
40511;SDS011;26213;52.446;20.706;2022-11-15T08:52:04;66.82;;;24.15;;
40511;SDS011;26213;52.446;20.706;2022-11-15T08:54:29;62.47;;;26.52;;
40511;SDS011;26213;52.446;20.706;2022-11-15T08:56:54;57.92;;;25.58;;
40511;SDS011;26213;52.446;20.706;2022-11-15T08:59:20;53.90;;;26.60;;
40511;SDS011;26213;52.446;20.706;2022-11-15T09:01:45;53.90;;;25.98;;
40511;SDS011;26213;52.446;20.706;2022-11-15T09:04:10;46.67;;;24.65;;
40511;SDS011;26213;52.446;20.706;2022-11-15T09:06:36;59.13;;;29.52;;
40511;SDS011;26213;52.446;20.706;2022-11-15T09:09:02;61.90;;;36.53;;
40511;SDS011;26213;52.446;20.706;2022-11-15T09:11:27;55.95;;;26.55;;
40511;SDS011;26213;52.446;20.706;2022-11-15T09:13:53;64.55;;;33.60;;
40511;SDS011;26213;52.446;20.706;2022-11-15T09:16:19;475.25;;;166.27;;
40511;SDS011;26213;52.446;20.706;2022-11-15T09:18:44;494.23;;;172.07;;
40511;SDS011;26213;52.446;20.706;2022-11-15T09:21:10;395.80;;;144.15;;
40511;SDS011;26213;52.446;20.706;2022-11-15T09:23:35;403.15;;;156.18;;
40511;SDS011;26213;52.446;20.706;2022-11-15T09:26:01;221.48;;;126.50;;
40511;SDS011;26213;52.446;20.706;2022-11-15T09:28:28;108.82;;;59.58;;
40511;SDS011;26213;52.446;20.706;2022-11-15T09:31:03;67.45;;;34.78;;
40511;SDS011;26213;52.446;20.706;2022-11-15T09:33:29;66.35;;;28.80;;
40511;SDS011;26213;52.446;20.706;2022-11-15T09:36:05;62.55;;;28.58;;
40511;SDS011;26213;52.446;20.706;2022-11-15T09:38:32;67.90;;;28.42;;
40511;SDS011;26213;52.446;20.706;2022-11-15T09:41:12;64.95;;;29.25;;
40511;SDS011;26213;52.446;20.706;2022-11-15T09:43:54;53.65;;;27.17;;
40511;SDS011;26213;52.446;20.706;2022-11-15T09:49:03;78.40;;;45.53;;
40511;SDS011;26213;52.446;20.706;2022-11-15T09:51:33;51.85;;;25.73;;
40511;SDS011;26213;52.446;20.706;2022-11-15T09:56:46;58.67;;;33.22;;
40511;SDS011;26213;52.446;20.706;2022-11-15T10:02:13;54.10;;;28.08;;
40511;SDS011;26213;52.446;20.706;2022-11-15T10:04:43;58.88;;;30.27;;
40511;SDS011;26213;52.446;20.706;2022-11-15T10:12:47;51.80;;;25.13;;
40511;SDS011;26213;52.446;20.706;2022-11-15T10:20:26;59.80;;;27.25;;
40511;SDS011;26213;52.446;20.706;2022-11-15T10:22:59;56.60;;;26.92;;
40511;SDS011;26213;52.446;20.706;2022-11-15T10:28:05;51.30;;;25.83;;
40511;SDS011;26213;52.446;20.706;2022-11-15T10:30:42;84.85;;;38.97;;
40511;SDS011;26213;52.446;20.706;2022-11-15T10:46:32;63.40;;;30.85;;
40511;SDS011;26213;52.446;20.706;2022-11-15T10:49:20;47.45;;;26.55;;
40511;SDS011;26213;52.446;20.706;2022-11-15T10:51:54;63.38;;;33.45;;
40511;SDS011;26213;52.446;20.706;2022-11-15T10:54:24;51.42;;;27.73;;
40511;SDS011;26213;52.446;20.706;2022-11-15T10:56:54;60.83;;;31.88;;
40511;SDS011;26213;52.446;20.706;2022-11-15T10:59:31;48.83;;;24.05;;
40511;SDS011;26213;52.446;20.706;2022-11-15T11:01:58;62.10;;;28.05;;
40511;SDS011;26213;52.446;20.706;2022-11-15T11:04:24;62.92;;;32.45;;
40511;SDS011;26213;52.446;20.706;2022-11-15T11:06:53;58.38;;;29.83;;
40511;SDS011;26213;52.446;20.706;2022-11-15T11:12:03;56.10;;;27.20;;
40511;SDS011;26213;52.446;20.706;2022-11-15T11:14:31;56.42;;;30.27;;
40511;SDS011;26213;52.446;20.706;2022-11-15T11:17:05;57.67;;;29.73;;
40511;SDS011;26213;52.446;20.706;2022-11-15T11:22:43;51.55;;;27.60;;
40511;SDS011;26213;52.446;20.706;2022-11-15T11:36:52;43.60;;;24.53;;
40511;SDS011;26213;52.446;20.706;2022-11-15T11:42:29;56.80;;;33.03;;
40511;SDS011;26213;52.446;20.706;2022-11-15T11:47:47;52.63;;;27.57;;
40511;SDS011;26213;52.446;20.706;2022-11-15T11:50:20;60.63;;;31.38;;
40511;SDS011;26213;52.446;20.706;2022-11-15T11:52:58;62.47;;;33.13;;
40511;SDS011;26213;52.446;20.706;2022-11-15T11:55:47;64.45;;;30.60;;
40511;SDS011;26213;52.446;20.706;2022-11-15T11:58:19;55.10;;;28.48;;
40511;SDS011;26213;52.446;20.706;2022-11-15T12:03:40;69.18;;;34.30;;
40511;SDS011;26213;52.446;20.706;2022-11-15T12:06:23;56.95;;;30.35;;
40511;SDS011;26213;52.446;20.706;2022-11-15T12:17:11;67.25;;;31.00;;
40511;SDS011;26213;52.446;20.706;2022-11-15T12:19:38;63.95;;;30.85;;
40511;SDS011;26213;52.446;20.706;2022-11-15T12:24:56;63.47;;;30.20;;
40511;SDS011;26213;52.446;20.706;2022-11-15T12:30:00;66.30;;;30.17;;
40511;SDS011;26213;52.446;20.706;2022-11-15T12:32:29;72.68;;;34.65;;
40511;SDS011;26213;52.446;20.706;2022-11-15T12:34:57;67.53;;;29.75;;
40511;SDS011;26213;52.446;20.706;2022-11-15T12:42:56;61.38;;;30.05;;
40511;SDS011;26213;52.446;20.706;2022-11-15T13:06:54;64.70;;;29.30;;
40511;SDS011;26213;52.446;20.706;2022-11-15T13:11:55;71.13;;;30.77;;
40511;SDS011;26213;52.446;20.706;2022-11-15T13:19:47;68.53;;;30.33;;
40511;SDS011;26213;52.446;20.706;2022-11-15T13:22:53;58.13;;;27.55;;
40511;SDS011;26213;52.446;20.706;2022-11-15T13:30:38;93.20;;;42.60;;
40511;SDS011;26213;52.446;20.706;2022-11-15T13:33:13;63.13;;;33.28;;
40511;SDS011;26213;52.446;20.706;2022-11-15T13:35:41;76.65;;;33.80;;
40511;SDS011;26213;52.446;20.706;2022-11-15T13:38:17;66.93;;;32.60;;
40511;SDS011;26213;52.446;20.706;2022-11-15T13:40:44;99.63;;;45.47;;
40511;SDS011;26213;52.446;20.706;2022-11-15T13:49:03;66.30;;;37.03;;
40511;SDS011;26213;52.446;20.706;2022-11-15T13:51:32;69.63;;;35.05;;
40511;SDS011;26213;52.446;20.706;2022-11-15T13:54:08;75.82;;;37.80;;
40511;SDS011;26213;52.446;20.706;2022-11-15T13:56:37;64.20;;;34.70;;
40511;SDS011;26213;52.446;20.706;2022-11-15T13:59:36;69.75;;;33.35;;
40511;SDS011;26213;52.446;20.706;2022-11-15T14:01:56;71.25;;;34.55;;
40511;SDS011;26213;52.446;20.706;2022-11-15T14:04:23;73.00;;;37.60;;
40511;SDS011;26213;52.446;20.706;2022-11-15T14:06:54;81.30;;;40.13;;
40511;SDS011;26213;52.446;20.706;2022-11-15T14:09:28;71.70;;;33.35;;
40511;SDS011;26213;52.446;20.706;2022-11-15T14:11:59;91.60;;;45.75;;
40511;SDS011;26213;52.446;20.706;2022-11-15T14:14:26;77.18;;;34.60;;
40511;SDS011;26213;52.446;20.706;2022-11-15T14:16:53;69.23;;;33.70;;
40511;SDS011;26213;52.446;20.706;2022-11-15T14:24:41;59.45;;;29.23;;
40511;SDS011;26213;52.446;20.706;2022-11-15T14:29:42;68.95;;;29.75;;
40511;SDS011;26213;52.446;20.706;2022-11-15T14:32:27;76.25;;;37.08;;
40511;SDS011;26213;52.446;20.706;2022-11-15T14:34:55;65.43;;;32.53;;
40511;SDS011;26213;52.446;20.706;2022-11-15T14:37:25;71.55;;;32.85;;
40511;SDS011;26213;52.446;20.706;2022-11-15T14:39:52;147.32;;;71.35;;
40511;SDS011;26213;52.446;20.706;2022-11-15T14:42:18;62.35;;;32.58;;
40511;SDS011;26213;52.446;20.706;2022-11-15T14:44:44;76.05;;;39.38;;
40511;SDS011;26213;52.446;20.706;2022-11-15T14:47:11;77.10;;;38.35;;
40511;SDS011;26213;52.446;20.706;2022-11-15T14:49:38;86.73;;;49.30;;
40511;SDS011;26213;52.446;20.706;2022-11-15T14:52:10;60.20;;;28.48;;
40511;SDS011;26213;52.446;20.706;2022-11-15T14:54:45;72.40;;;35.25;;
40511;SDS011;26213;52.446;20.706;2022-11-15T14:57:11;80.72;;;37.50;;
40511;SDS011;26213;52.446;20.706;2022-11-15T14:59:37;84.88;;;42.63;;
40511;SDS011;26213;52.446;20.706;2022-11-15T15:02:08;81.53;;;37.85;;
40511;SDS011;26213;52.446;20.706;2022-11-15T15:04:42;91.40;;;51.45;;
40511;SDS011;26213;52.446;20.706;2022-11-15T15:07:08;80.30;;;38.47;;
40511;SDS011;26213;52.446;20.706;2022-11-15T15:09:34;86.70;;;38.67;;
40511;SDS011;26213;52.446;20.706;2022-11-15T15:11:59;119.40;;;54.30;;
40511;SDS011;26213;52.446;20.706;2022-11-15T15:14:25;111.05;;;41.85;;
40511;SDS011;26213;52.446;20.706;2022-11-15T15:16:51;82.60;;;33.97;;
40511;SDS011;26213;52.446;20.706;2022-11-15T15:19:16;86.45;;;34.35;;
40511;SDS011;26213;52.446;20.706;2022-11-15T15:21:42;104.07;;;47.53;;
40511;SDS011;26213;52.446;20.706;2022-11-15T15:24:13;110.00;;;51.13;;
40511;SDS011;26213;52.446;20.706;2022-11-15T15:26:40;107.55;;;40.67;;
40511;SDS011;26213;52.446;20.706;2022-11-15T15:29:05;86.30;;;37.47;;
40511;SDS011;26213;52.446;20.706;2022-11-15T15:33:59;79.22;;;36.92;;
40511;SDS011;26213;52.446;20.706;2022-11-15T15:36:25;78.78;;;38.60;;
40511;SDS011;26213;52.446;20.706;2022-11-15T15:38:50;179.02;;;75.47;;
40511;SDS011;26213;52.446;20.706;2022-11-15T15:41:18;115.20;;;48.63;;
40511;SDS011;26213;52.446;20.706;2022-11-15T15:43:46;97.32;;;43.92;;
40511;SDS011;26213;52.446;20.706;2022-11-15T15:46:16;74.00;;;36.15;;
40511;SDS011;26213;52.446;20.706;2022-11-15T15:48:43;64.70;;;32.22;;
40511;SDS011;26213;52.446;20.706;2022-11-15T15:51:09;72.80;;;35.30;;
40511;SDS011;26213;52.446;20.706;2022-11-15T15:53:35;69.32;;;31.35;;
40511;SDS011;26213;52.446;20.706;2022-11-15T15:56:01;63.65;;;33.28;;
40511;SDS011;26213;52.446;20.706;2022-11-15T15:58:27;65.53;;;27.83;;
40511;SDS011;26213;52.446;20.706;2022-11-15T16:00:52;67.47;;;27.90;;
40511;SDS011;26213;52.446;20.706;2022-11-15T16:03:18;111.43;;;63.55;;
40511;SDS011;26213;52.446;20.706;2022-11-15T16:05:44;313.45;;;226.90;;
40511;SDS011;26213;52.446;20.706;2022-11-15T16:08:16;497.48;;;272.77;;
40511;SDS011;26213;52.446;20.706;2022-11-15T16:10:46;140.65;;;58.55;;
40511;SDS011;26213;52.446;20.706;2022-11-15T16:13:12;94.68;;;41.25;;
40511;SDS011;26213;52.446;20.706;2022-11-15T16:15:37;86.65;;;39.35;;
40511;SDS011;26213;52.446;20.706;2022-11-15T16:18:03;244.93;;;80.68;;
40511;SDS011;26213;52.446;20.706;2022-11-15T16:20:34;130.40;;;48.20;;
40511;SDS011;26213;52.446;20.706;2022-11-15T16:23:05;417.33;;;119.97;;
40511;SDS011;26213;52.446;20.706;2022-11-15T16:28:28;87.65;;;61.78;;
40511;SDS011;26213;52.446;20.706;2022-11-15T16:30:59;72.00;;;53.05;;
40511;SDS011;26213;52.446;20.706;2022-11-15T16:33:28;138.88;;;54.33;;
40511;SDS011;26213;52.446;20.706;2022-11-15T16:35:54;171.23;;;59.95;;
40511;SDS011;26213;52.446;20.706;2022-11-15T16:38:19;263.33;;;79.85;;
40511;SDS011;26213;52.446;20.706;2022-11-15T16:40:46;276.75;;;72.30;;
40511;SDS011;26213;52.446;20.706;2022-11-15T16:43:12;193.95;;;59.03;;
40511;SDS011;26213;52.446;20.706;2022-11-15T16:45:37;158.98;;;54.47;;
40511;SDS011;26213;52.446;20.706;2022-11-15T16:48:04;87.78;;;36.10;;
40511;SDS011;26213;52.446;20.706;2022-11-15T16:50:33;100.60;;;41.83;;
40511;SDS011;26213;52.446;20.706;2022-11-15T16:53:05;200.55;;;66.82;;
40511;SDS011;26213;52.446;20.706;2022-11-15T16:55:30;117.03;;;40.58;;
40511;SDS011;26213;52.446;20.706;2022-11-15T16:57:57;188.85;;;58.85;;
40511;SDS011;26213;52.446;20.706;2022-11-15T17:00:23;135.80;;;47.60;;
40511;SDS011;26213;52.446;20.706;2022-11-15T17:02:49;92.53;;;36.55;;
40511;SDS011;26213;52.446;20.706;2022-11-15T17:05:16;352.80;;;117.68;;